NY91 weather

Cloverdale Farm Airport
Peterboro, New York, United States

Public forecast

Using degrees Fahrenheit for public forecast. Weather courtesy of forecast.io.

Closest aviation weather report (METAR) to Cloverdale Farm Airport

Closest report is Syracuse Hancock International Airport, 19.1 nm (35.3 km) WNW. Retrieved 2019/11/14 19:54 UTC (28 minutes ago):

KSYR 141954Z 18008KT 10SM OVC100 02/M08 A3019 RMK AO2 SLP225 T00171078

Closest aviation forecast (TAF) to Cloverdale Farm Airport

Closest forecast is Syracuse Hancock International Airport, 19.1 nm (35.3 km) WNW. Retrieved 2019/11/14 18:28 UTC (2 hours ago):

TAF KSYR 141726Z 1418/1518 VRB04KT P6SM BKN050 FM150500 VRB04KT P6SM BKN060 FM151400 28009KT P6SM BKN030 OVC050